createdAt,value
2023-02-13T00:01:18.226Z,1.00
2023-02-13T00:13:35.524Z,1.00
2023-02-13T00:16:04.496Z,1.10
2023-02-13T00:18:36.241Z,1.00
2023-02-13T00:21:09.160Z,1.00
2023-02-13T00:23:37.343Z,1.00
2023-02-13T00:26:10.404Z,1.00
2023-02-13T00:31:17.063Z,1.00
2023-02-13T00:36:15.035Z,0.90
2023-02-13T00:38:43.078Z,0.90
2023-02-13T00:41:10.995Z,0.90
2023-02-13T00:46:06.310Z,0.80
2023-02-13T00:48:34.400Z,0.90
2023-02-13T00:51:02.056Z,0.90
2023-02-13T01:00:52.721Z,0.80
2023-02-13T01:05:48.263Z,0.80
2023-02-13T01:08:16.450Z,0.90
2023-02-13T01:40:14.140Z,0.90
2023-02-13T01:45:29.986Z,0.90
2023-02-13T01:48:11.172Z,0.90
2023-02-13T01:50:42.862Z,0.80
2023-02-13T01:53:41.160Z,0.80
2023-02-13T01:56:21.417Z,0.80
2023-02-13T01:58:51.427Z,0.80
2023-02-13T02:04:00.686Z,0.70
2023-02-13T02:06:34.635Z,0.70
2023-02-13T02:09:10.519Z,0.70
2023-02-13T02:11:48.121Z,0.70
2023-02-13T02:19:37.076Z,0.60
2023-02-13T02:24:47.797Z,0.60
2023-02-13T02:27:41.659Z,0.60
2023-02-13T02:30:53.337Z,0.60
2023-02-13T02:33:30.941Z,0.60
2023-02-13T02:36:20.295Z,0.50
2023-02-13T02:44:20.149Z,0.50
2023-02-13T02:50:20.044Z,0.40
2023-02-13T02:52:59.792Z,0.30
2023-02-13T02:55:39.134Z,0.40
2023-02-13T02:58:30.417Z,0.30
2023-02-13T03:01:18.233Z,0.30
2023-02-13T03:04:05.556Z,0.30
2023-02-13T03:07:04.611Z,0.40
2023-02-13T03:09:54.796Z,0.30
2023-02-13T03:12:42.329Z,0.20
2023-02-13T03:15:10.486Z,0.30
2023-02-13T03:17:56.225Z,0.30
2023-02-13T03:20:47.198Z,0.40
2023-02-13T03:23:17.622Z,0.40
2023-02-13T03:25:53.176Z,0.40
2023-02-13T03:28:47.431Z,0.40
2023-02-13T03:33:53.062Z,0.30
2023-02-13T03:39:46.372Z,0.40
2023-02-13T03:42:29.018Z,0.40
2023-02-13T03:45:25.721Z,0.40
2023-02-13T03:47:55.690Z,0.40
2023-02-13T03:50:24.112Z,0.40
2023-02-13T03:52:59.057Z,0.50
2023-02-13T03:55:52.989Z,0.50
2023-02-13T03:59:03.897Z,0.50
2023-02-13T04:01:34.177Z,0.50
2023-02-13T04:04:10.491Z,0.50
2023-02-13T04:06:50.551Z,0.50
2023-02-13T04:11:47.416Z,0.50
2023-02-13T04:14:32.343Z,0.50
2023-02-13T04:17:05.141Z,0.50
2023-02-13T04:19:33.104Z,0.50
2023-02-13T04:22:01.829Z,0.40
2023-02-13T04:29:24.650Z,0.50
2023-02-13T05:46:09.944Z,0.30
2023-02-13T05:56:04.178Z,0.30
2023-02-13T06:00:59.661Z,0.20
2023-02-13T06:03:28.494Z,0.20
2023-02-13T06:08:23.284Z,0.20
2023-02-13T06:10:50.856Z,0.20
2023-02-13T06:25:37.702Z,0.30
2023-02-13T06:28:05.450Z,0.30
2023-02-13T06:47:48.236Z,0.40
2023-02-13T06:50:16.798Z,0.40
2023-02-13T06:52:48.234Z,0.40
2023-02-13T06:57:43.773Z,0.40
2023-02-13T07:00:13.473Z,0.40
2023-02-13T07:02:42.029Z,0.40
2023-02-13T07:07:37.874Z,0.50
2023-02-13T07:10:07.492Z,0.40
2023-02-13T07:12:36.564Z,0.40
2023-02-13T07:15:04.826Z,0.40
2023-02-13T07:37:29.479Z,0.60
2023-02-13T07:57:15.495Z,0.70
2023-02-13T08:02:14.317Z,0.70
2023-02-13T08:29:42.479Z,0.80
2023-02-13T08:56:43.370Z,1.00
2023-02-13T09:16:22.009Z,1.10
2023-02-13T09:18:50.429Z,1.10
2023-02-13T09:26:14.446Z,1.20
2023-02-13T09:28:42.457Z,1.20
2023-02-13T09:31:18.355Z,1.20
2023-02-13T09:33:46.836Z,1.30
2023-02-13T09:36:16.584Z,1.30
2023-02-13T09:41:19.839Z,1.40
2023-02-13T09:46:23.260Z,1.40
2023-02-13T09:48:57.375Z,1.40
2023-02-13T09:51:25.874Z,1.50
2023-02-13T09:54:00.286Z,1.50
2023-02-13T09:56:35.709Z,1.50
2023-02-13T09:59:34.926Z,1.50
2023-02-13T10:02:17.416Z,1.50
2023-02-13T10:05:03.723Z,1.50
2023-02-13T10:07:38.747Z,1.60
2023-02-13T10:10:43.659Z,1.60
2023-02-13T10:13:44.324Z,1.60
2023-02-13T10:16:25.801Z,1.80
2023-02-13T10:21:24.445Z,1.90
2023-02-13T10:24:26.615Z,1.90
2023-02-13T10:26:55.035Z,2.00
2023-02-13T10:29:50.421Z,2.00
2023-02-13T10:32:21.394Z,2.00
2023-02-13T10:37:18.940Z,2.10
2023-02-13T10:39:48.953Z,2.10
2023-02-13T10:42:46.284Z,2.20
2023-02-13T10:45:43.544Z,2.20
2023-02-13T10:50:59.281Z,2.20
2023-02-13T10:56:22.555Z,2.30
2023-02-13T11:01:40.037Z,2.40
2023-02-13T11:04:12.634Z,2.50
2023-02-13T11:06:47.042Z,2.50
2023-02-13T11:11:43.875Z,2.60
2023-02-13T11:14:15.874Z,2.70
2023-02-13T11:17:05.926Z,2.70
2023-02-13T11:20:04.622Z,2.70
2023-02-13T11:22:39.375Z,2.70
2023-02-13T11:25:20.882Z,2.80
2023-02-13T11:27:49.638Z,2.90
2023-02-13T11:33:00.212Z,2.90
2023-02-13T11:38:20.578Z,2.90
2023-02-13T11:41:03.654Z,3.00
2023-02-13T11:43:43.752Z,3.00
2023-02-13T11:46:53.076Z,3.00
2023-02-13T11:49:37.382Z,3.10
2023-02-13T11:52:07.502Z,3.10
2023-02-13T11:54:35.899Z,3.30
2023-02-13T11:57:24.647Z,3.30
2023-02-13T11:59:53.230Z,3.30
2023-02-13T12:02:31.074Z,3.30
2023-02-13T12:05:21.449Z,3.30
2023-02-13T12:12:58.222Z,3.50
2023-02-13T12:15:34.049Z,3.60
2023-02-13T12:18:09.492Z,3.60
2023-02-13T12:20:42.335Z,3.70
2023-02-13T12:23:35.137Z,3.70
2023-02-13T12:26:13.760Z,3.70
2023-02-13T12:28:59.435Z,3.70
2023-02-13T12:31:55.342Z,3.70
2023-02-13T12:34:49.544Z,3.70
2023-02-13T12:38:01.303Z,3.70
2023-02-13T12:43:17.438Z,3.80
2023-02-13T12:48:45.925Z,3.80
2023-02-13T12:51:29.762Z,3.80
2023-02-13T12:57:02.527Z,3.80
2023-02-13T13:00:01.417Z,3.90
2023-02-13T13:02:56.767Z,3.90
2023-02-13T13:05:37.679Z,3.90
2023-02-13T13:08:22.244Z,3.90
2023-02-13T13:10:52.214Z,4.00
2023-02-13T13:13:45.093Z,4.00
2023-02-13T13:16:26.928Z,4.10
2023-02-13T13:19:18.740Z,4.00
2023-02-13T13:21:50.213Z,4.10
2023-02-13T13:24:34.430Z,4.10
2023-02-13T13:27:03.409Z,4.20
2023-02-13T13:29:39.811Z,4.20
2023-02-13T13:32:11.432Z,4.20
2023-02-13T13:34:39.854Z,4.20
2023-02-13T13:37:19.616Z,4.30
2023-02-13T13:40:03.607Z,4.30
2023-02-13T13:45:28.795Z,4.40
2023-02-13T13:48:21.636Z,4.40
2023-02-13T13:53:23.379Z,4.50
2023-02-13T13:58:41.906Z,4.50
2023-02-13T14:01:26.853Z,4.60
2023-02-13T14:03:58.189Z,4.60
2023-02-13T14:08:56.924Z,4.70
2023-02-13T14:11:39.894Z,4.70
2023-02-13T14:14:28.629Z,4.70
2023-02-13T14:17:04.573Z,4.70
2023-02-13T14:19:37.759Z,4.70
2023-02-13T14:22:32.701Z,4.70
2023-02-13T14:25:02.450Z,4.70
2023-02-13T14:27:37.399Z,4.80
2023-02-13T14:30:22.214Z,4.90
2023-02-13T14:35:27.796Z,5.00
2023-02-13T14:37:58.515Z,4.90
2023-02-13T14:40:48.408Z,5.00
2023-02-13T14:45:54.813Z,4.90
2023-02-13T14:48:28.283Z,4.90
2023-02-13T14:50:58.044Z,5.00
2023-02-13T14:53:30.053Z,5.00
2023-02-13T14:56:07.138Z,5.00
2023-02-13T14:58:37.113Z,5.00
2023-02-13T15:01:18.819Z,4.90
2023-02-13T15:03:54.930Z,5.00
2023-02-13T15:08:51.220Z,5.00
2023-02-13T15:11:39.950Z,4.90
2023-02-13T15:14:39.166Z,5.00
2023-02-13T15:17:18.282Z,4.90
2023-02-13T15:19:48.944Z,5.00
2023-02-13T15:22:39.986Z,5.00
2023-02-13T15:25:08.936Z,5.00
2023-02-13T15:27:43.289Z,5.10
2023-02-13T15:30:19.392Z,5.00
2023-02-13T15:32:54.687Z,5.10
2023-02-13T15:35:25.610Z,5.00
2023-02-13T15:37:53.065Z,5.00
2023-02-13T15:40:32.156Z,5.00
2023-02-13T15:43:00.990Z,5.00
2023-02-13T15:45:29.490Z,4.90
2023-02-13T15:47:57.004Z,4.90
2023-02-13T15:50:33.693Z,4.80
2023-02-13T15:53:03.730Z,4.70
2023-02-13T15:55:33.849Z,4.70
2023-02-13T15:58:01.933Z,4.70
2023-02-13T16:00:33.506Z,4.60
2023-02-13T16:03:03.543Z,4.60
2023-02-13T16:05:40.544Z,4.50
2023-02-13T16:08:35.980Z,4.50
2023-02-13T16:11:23.715Z,4.40
2023-02-13T16:14:14.834Z,4.40
2023-02-13T16:16:50.518Z,4.30
2023-02-13T16:19:49.644Z,4.30
2023-02-13T16:22:34.401Z,4.20
2023-02-13T16:25:07.624Z,4.20
2023-02-13T16:30:05.555Z,4.10
2023-02-13T16:32:38.782Z,4.00
2023-02-13T16:35:29.035Z,4.00
2023-02-13T16:38:03.190Z,3.90
2023-02-13T16:40:38.938Z,3.90
2023-02-13T16:43:33.593Z,3.80
2023-02-13T16:46:33.868Z,3.80
2023-02-13T16:49:16.450Z,3.70
2023-02-13T16:51:51.125Z,3.70
2023-02-13T16:54:38.450Z,3.70
2023-02-13T16:57:13.467Z,3.60
2023-02-13T17:00:05.385Z,3.60
2023-02-13T17:02:42.932Z,3.60
2023-02-13T17:07:43.675Z,3.60
2023-02-13T17:10:31.162Z,3.60
2023-02-13T17:13:01.410Z,3.50
2023-02-13T17:15:30.880Z,3.50
2023-02-13T17:20:27.779Z,3.50
2023-02-13T17:22:57.007Z,3.60
2023-02-13T17:25:31.294Z,3.50
2023-02-13T17:28:01.151Z,3.50
2023-02-13T17:30:30.579Z,3.50
2023-02-13T17:33:05.865Z,3.50
2023-02-13T17:42:59.585Z,3.40
2023-02-13T17:45:29.609Z,3.40
2023-02-13T17:50:26.799Z,3.30
2023-02-13T17:55:24.616Z,3.30
2023-02-13T17:57:53.160Z,3.30
2023-02-13T18:00:21.263Z,3.30
2023-02-13T18:02:49.297Z,3.30
2023-02-13T18:05:17.485Z,3.30
2023-02-13T18:10:18.274Z,3.30
2023-02-13T18:12:46.199Z,3.30
2023-02-13T18:15:13.491Z,3.30
2023-02-13T18:20:09.759Z,3.40
2023-02-13T19:14:14.109Z,3.20
2023-02-13T19:19:08.894Z,3.30
2023-02-13T19:21:38.027Z,3.30
2023-02-13T19:24:08.691Z,3.20
2023-02-13T19:29:04.144Z,3.30
2023-02-13T19:31:32.665Z,3.20
2023-02-13T19:36:30.125Z,3.30
2023-02-13T19:39:03.417Z,3.30
2023-02-13T19:46:31.992Z,3.30
2023-02-13T19:51:29.356Z,3.30
2023-02-13T19:54:01.490Z,3.30
2023-02-13T19:56:30.837Z,3.30
2023-02-13T20:01:27.506Z,3.30
2023-02-13T20:06:24.867Z,3.20
2023-02-13T20:11:21.704Z,3.20
2023-02-13T20:16:17.284Z,3.30
2023-02-13T20:21:15.386Z,3.20
2023-02-13T20:26:16.721Z,3.20
2023-02-13T20:28:45.910Z,3.20
2023-02-13T20:31:18.764Z,3.20
2023-02-13T20:36:16.165Z,3.20
2023-02-13T20:41:16.591Z,3.20
2023-02-13T20:46:12.338Z,3.20
2023-02-13T20:48:40.758Z,3.20
2023-02-13T20:51:11.687Z,3.10
2023-02-13T20:56:08.402Z,3.20
2023-02-13T21:01:04.663Z,3.20
2023-02-13T22:56:34.729Z,3.20
2023-02-13T23:01:29.602Z,3.20
2023-02-13T23:03:57.212Z,3.20
2023-02-13T23:11:43.377Z,3.10
2023-02-13T23:14:11.058Z,3.10
2023-02-13T23:17:00.007Z,3.10
